createdAt,value
2023-03-03T00:00:56.045Z,6.53
2023-03-03T00:03:25.356Z,6.23
2023-03-03T00:05:52.783Z,5.30
2023-03-03T00:08:20.734Z,6.03
2023-03-03T00:10:47.744Z,6.60
2023-03-03T00:13:20.288Z,6.07
2023-03-03T00:15:47.940Z,5.93
2023-03-03T00:18:41.513Z,5.47
2023-03-03T00:21:23.296Z,4.73
2023-03-03T00:23:50.720Z,6.03
2023-03-03T00:26:31.492Z,6.17
2023-03-03T00:28:58.273Z,5.30
2023-03-03T00:31:34.310Z,5.63
2023-03-03T00:34:25.799Z,5.50
2023-03-03T00:36:56.243Z,4.93
2023-03-03T00:39:36.684Z,5.03
2023-03-03T00:42:12.657Z,5.10
2023-03-03T00:44:44.537Z,6.33
2023-03-03T00:47:31.065Z,6.83
2023-03-03T00:50:07.093Z,5.53
2023-03-03T00:52:36.527Z,5.20
2023-03-03T00:55:04.515Z,5.63
2023-03-03T00:57:31.478Z,5.50
2023-03-03T00:59:58.161Z,4.80
2023-03-03T01:02:25.022Z,5.93
2023-03-03T01:04:53.538Z,6.70
2023-03-03T01:07:20.210Z,7.10
2023-03-03T01:09:46.861Z,6.53
2023-03-03T01:12:13.827Z,6.93
2023-03-03T01:14:40.875Z,6.73
2023-03-03T01:17:07.997Z,6.20
2023-03-03T01:19:34.749Z,6.50
2023-03-03T01:22:01.811Z,7.30
2023-03-03T01:24:28.630Z,6.63
2023-03-03T01:26:55.362Z,5.40
2023-03-03T01:29:22.115Z,5.97
2023-03-03T01:31:48.835Z,6.70
2023-03-03T01:34:15.621Z,6.50
2023-03-03T01:36:42.476Z,6.33
2023-03-03T01:39:11.191Z,6.70
2023-03-03T01:41:37.974Z,6.57
2023-03-03T01:44:04.879Z,7.03
2023-03-03T01:46:37.909Z,7.70
2023-03-03T01:49:33.915Z,8.83
2023-03-03T01:52:03.992Z,7.17
2023-03-03T01:54:35.724Z,6.50
2023-03-03T01:57:05.684Z,6.87
2023-03-03T01:59:36.037Z,7.60
2023-03-03T02:02:03.842Z,5.53
2023-03-03T02:04:30.726Z,6.23
2023-03-03T02:07:07.040Z,7.83
2023-03-03T02:09:56.315Z,7.37
2023-03-03T02:12:28.890Z,6.67
2023-03-03T02:14:55.655Z,7.27
2023-03-03T02:17:22.381Z,6.20
2023-03-03T02:20:01.691Z,6.77
2023-03-03T02:22:49.442Z,6.30
2023-03-03T02:25:27.611Z,5.83
2023-03-03T02:27:54.338Z,6.30
2023-03-03T02:30:24.205Z,5.90
2023-03-03T02:32:50.931Z,7.43
2023-03-03T02:35:38.885Z,8.23
2023-03-03T02:38:27.833Z,7.20
2023-03-03T02:41:09.862Z,6.73
2023-03-03T02:44:01.439Z,6.50
2023-03-03T02:46:31.995Z,7.87
2023-03-03T02:48:58.797Z,7.40
2023-03-03T02:51:25.564Z,6.63
2023-03-03T02:53:52.592Z,6.97
2023-03-03T02:56:19.386Z,7.57
2023-03-03T02:58:46.120Z,7.97
2023-03-03T03:01:12.921Z,7.70
2023-03-03T03:03:39.792Z,8.00
2023-03-03T03:06:06.637Z,6.77
2023-03-03T03:08:33.361Z,7.87
2023-03-03T03:11:00.131Z,7.30
2023-03-03T03:13:27.383Z,8.20
2023-03-03T03:15:54.416Z,7.73
2023-03-03T03:18:21.145Z,7.13
2023-03-03T03:20:48.584Z,6.97
2023-03-03T03:23:15.903Z,5.77
2023-03-03T03:25:46.643Z,6.40
2023-03-03T03:28:14.146Z,5.87
2023-03-03T03:30:41.164Z,5.80
2023-03-03T03:33:08.305Z,7.00
2023-03-03T03:35:35.711Z,7.40
2023-03-03T03:38:02.958Z,7.30
2023-03-03T03:40:29.799Z,6.93
2023-03-03T03:42:56.844Z,7.00
2023-03-03T03:45:23.656Z,7.60
2023-03-03T03:47:50.427Z,7.63
2023-03-03T03:50:17.171Z,6.40
2023-03-03T03:52:43.925Z,7.50
2023-03-03T03:55:10.851Z,7.30
2023-03-03T03:57:37.689Z,9.10
2023-03-03T04:00:08.796Z,8.90
2023-03-03T04:02:36.288Z,7.60
2023-03-03T04:05:03.606Z,7.00
2023-03-03T04:07:30.486Z,7.97
2023-03-03T04:09:57.223Z,6.63
2023-03-03T04:12:23.900Z,9.03
2023-03-03T04:14:50.648Z,9.10
2023-03-03T04:17:18.818Z,8.90
2023-03-03T04:19:45.796Z,8.43
2023-03-03T04:22:13.840Z,9.17
2023-03-03T04:24:41.383Z,8.13
2023-03-03T04:27:09.585Z,9.40
2023-03-03T04:29:36.398Z,9.23
2023-03-03T04:32:03.205Z,10.00
2023-03-03T04:34:30.041Z,9.90
2023-03-03T04:36:56.777Z,9.00
2023-03-03T04:39:23.506Z,9.30
2023-03-03T04:41:50.376Z,9.10
2023-03-03T04:44:17.078Z,9.40
2023-03-03T04:46:43.774Z,9.47
2023-03-03T04:49:12.499Z,8.97
2023-03-03T04:51:39.444Z,8.23
2023-03-03T04:54:06.316Z,7.90
2023-03-03T04:56:33.139Z,8.47
2023-03-03T04:58:59.857Z,9.40
2023-03-03T05:01:26.696Z,8.53
2023-03-03T05:03:53.443Z,9.10
2023-03-03T05:06:20.269Z,7.50
2023-03-03T05:08:47.002Z,7.87
2023-03-03T05:11:14.162Z,7.93
2023-03-03T05:13:41.271Z,8.00
2023-03-03T05:16:08.722Z,8.40
2023-03-03T05:18:35.517Z,9.43
2023-03-03T05:21:02.178Z,8.03
2023-03-03T05:23:28.820Z,7.00
2023-03-03T05:25:55.576Z,8.60
2023-03-03T05:28:22.223Z,8.70
2023-03-03T05:30:49.179Z,8.90
2023-03-03T05:33:17.086Z,7.43
2023-03-03T05:35:44.238Z,9.00
2023-03-03T05:38:11.425Z,7.90
2023-03-03T05:40:38.549Z,9.20
2023-03-03T05:43:05.446Z,8.97
2023-03-03T05:45:32.437Z,9.27
2023-03-03T05:47:59.120Z,8.77
2023-03-03T05:50:25.848Z,9.50
2023-03-03T05:52:53.101Z,10.90
2023-03-03T05:55:20.300Z,11.63
2023-03-03T05:57:47.004Z,11.27
2023-03-03T06:00:14.944Z,12.80
2023-03-03T06:02:42.442Z,12.80
2023-03-03T06:05:09.926Z,11.70
2023-03-03T06:07:36.714Z,12.70
2023-03-03T06:10:03.746Z,12.93
2023-03-03T06:12:30.623Z,12.93
2023-03-03T06:14:57.354Z,12.30
2023-03-03T06:17:24.352Z,12.40
2023-03-03T06:19:50.963Z,12.60
2023-03-03T06:22:17.746Z,12.80
2023-03-03T06:24:44.603Z,11.93
2023-03-03T06:27:11.354Z,9.17
2023-03-03T06:29:38.123Z,10.20
2023-03-03T06:32:05.280Z,13.10
2023-03-03T06:34:32.131Z,11.60
2023-03-03T06:36:58.906Z,10.00
2023-03-03T06:39:25.672Z,10.70
2023-03-03T06:41:52.461Z,10.50
2023-03-03T06:44:19.232Z,11.13
2023-03-03T06:46:45.944Z,9.13
2023-03-03T06:49:12.750Z,9.20
2023-03-03T06:51:40.086Z,10.00
2023-03-03T06:54:22.470Z,9.57
2023-03-03T06:56:52.163Z,9.53
2023-03-03T06:59:20.891Z,9.20
2023-03-03T07:01:49.289Z,8.80
2023-03-03T07:04:16.160Z,9.57
2023-03-03T07:06:42.955Z,9.67
2023-03-03T07:09:18.529Z,9.80
2023-03-03T07:11:46.639Z,9.90
2023-03-03T07:14:17.227Z,9.53
2023-03-03T07:16:44.117Z,9.53
2023-03-03T07:19:33.564Z,10.50
2023-03-03T07:22:14.230Z,9.70
2023-03-03T07:24:42.487Z,11.30
2023-03-03T07:27:18.411Z,10.77
2023-03-03T07:29:48.532Z,10.27
2023-03-03T07:32:40.964Z,12.33
2023-03-03T07:35:38.847Z,11.07
2023-03-03T07:38:18.245Z,11.07
2023-03-03T07:40:50.897Z,10.57
2023-03-03T07:43:23.666Z,12.00
2023-03-03T07:45:51.365Z,15.13
2023-03-03T07:48:40.201Z,16.50
2023-03-03T07:51:16.557Z,17.03
2023-03-03T07:53:43.340Z,15.30
2023-03-03T07:56:31.176Z,12.83
2023-03-03T07:58:58.661Z,14.13
2023-03-03T08:01:42.788Z,12.20
2023-03-03T08:04:23.326Z,11.90
2023-03-03T08:06:58.657Z,13.23
2023-03-03T08:09:27.895Z,12.07
2023-03-03T08:12:06.706Z,12.53
2023-03-03T08:14:38.103Z,11.60
2023-03-03T08:17:15.159Z,11.50
2023-03-03T08:19:41.877Z,10.70
2023-03-03T08:22:41.736Z,12.13
2023-03-03T08:25:08.696Z,10.60
2023-03-03T08:27:35.411Z,10.00
2023-03-03T08:30:02.148Z,10.00
2023-03-03T08:32:29.051Z,9.40
2023-03-03T08:34:55.922Z,11.53
2023-03-03T08:37:22.640Z,9.13
2023-03-03T08:39:49.612Z,9.30
2023-03-03T08:42:16.448Z,8.97
2023-03-03T08:44:43.291Z,10.87
2023-03-03T08:47:09.990Z,9.33
2023-03-03T08:49:36.785Z,8.33
2023-03-03T08:52:04.061Z,9.13
2023-03-03T08:54:30.803Z,10.50
2023-03-03T08:56:57.634Z,9.70
2023-03-03T08:59:24.383Z,8.43
2023-03-03T09:01:51.157Z,9.63
2023-03-03T09:04:17.944Z,10.20
2023-03-03T09:06:44.628Z,12.20
2023-03-03T09:09:11.362Z,12.97
2023-03-03T09:11:38.172Z,11.07
2023-03-03T09:14:12.583Z,12.00
2023-03-03T09:16:41.604Z,12.53
2023-03-03T09:19:17.480Z,10.40
2023-03-03T09:21:44.211Z,10.60
2023-03-03T09:24:29.313Z,9.43
2023-03-03T09:26:59.060Z,7.90
2023-03-03T09:29:30.648Z,9.40
2023-03-03T09:32:21.705Z,8.77
2023-03-03T09:34:48.500Z,8.90
2023-03-03T09:37:23.304Z,7.53
2023-03-03T09:39:52.098Z,9.57
2023-03-03T09:42:43.220Z,7.90
2023-03-03T09:45:28.268Z,8.67
2023-03-03T09:48:04.629Z,9.20
2023-03-03T09:50:52.741Z,7.27
2023-03-03T09:53:28.689Z,7.90
2023-03-03T09:56:10.512Z,7.20
2023-03-03T09:58:57.329Z,8.70
2023-03-03T10:01:52.234Z,8.13
2023-03-03T10:04:42.778Z,9.07
2023-03-03T10:07:20.518Z,8.30
2023-03-03T10:10:08.190Z,8.27
2023-03-03T10:12:49.166Z,8.30
2023-03-03T10:15:53.140Z,8.73
2023-03-03T10:18:35.613Z,6.57
2023-03-03T10:21:05.990Z,7.23
2023-03-03T10:23:41.620Z,7.13
2023-03-03T10:26:44.887Z,7.90
2023-03-03T10:29:34.171Z,6.53
2023-03-03T10:32:39.622Z,7.37
2023-03-03T10:35:22.578Z,6.63
2023-03-03T10:38:14.826Z,6.57
2023-03-03T10:41:11.479Z,7.10
2023-03-03T10:44:14.725Z,8.07
2023-03-03T10:46:48.661Z,8.20
2023-03-03T10:49:28.778Z,8.00
2023-03-03T10:51:58.883Z,8.43
2023-03-03T10:54:40.478Z,8.20
2023-03-03T10:57:34.874Z,7.77
2023-03-03T11:00:48.262Z,8.90
2023-03-03T11:03:23.570Z,8.93
2023-03-03T11:06:02.390Z,9.63
2023-03-03T11:08:32.372Z,9.67
2023-03-03T11:11:17.199Z,10.00
2023-03-03T11:14:02.272Z,10.30
2023-03-03T11:17:01.529Z,9.67
2023-03-03T11:19:52.908Z,9.20
2023-03-03T11:22:38.736Z,8.90
2023-03-03T11:25:23.860Z,10.43
2023-03-03T11:27:59.673Z,11.50
2023-03-03T11:30:36.539Z,9.47
2023-03-03T11:33:18.693Z,10.53
2023-03-03T11:35:54.607Z,11.00
2023-03-03T11:38:36.273Z,9.57
2023-03-03T11:41:35.904Z,9.23
2023-03-03T11:44:10.260Z,10.23
2023-03-03T11:46:40.666Z,9.73
2023-03-03T11:49:15.849Z,11.70
2023-03-03T11:52:01.848Z,11.43
2023-03-03T11:55:00.671Z,9.73
2023-03-03T11:57:35.379Z,10.50
2023-03-03T12:00:39.401Z,9.70
2023-03-03T12:03:18.013Z,9.73
2023-03-03T12:05:58.688Z,9.73
2023-03-03T12:08:43.734Z,10.47
2023-03-03T12:11:13.326Z,9.23
2023-03-03T12:13:49.680Z,10.73
2023-03-03T12:16:31.188Z,9.20
2023-03-03T12:19:13.967Z,8.73
2023-03-03T12:21:49.625Z,9.93
2023-03-03T12:24:16.303Z,10.73
2023-03-03T12:26:55.690Z,9.23
2023-03-03T12:29:30.341Z,9.43
2023-03-03T12:32:12.130Z,9.00
2023-03-03T12:34:49.346Z,10.27
2023-03-03T12:37:47.061Z,10.47
2023-03-03T12:40:14.986Z,10.60
2023-03-03T12:43:02.969Z,11.10
2023-03-03T12:45:57.107Z,10.60
2023-03-03T12:48:38.849Z,11.73
2023-03-03T12:51:30.473Z,10.20
2023-03-03T12:54:15.147Z,9.70
2023-03-03T12:56:45.761Z,10.10
2023-03-03T12:59:46.270Z,11.07
2023-03-03T13:02:22.782Z,9.13
2023-03-03T13:05:15.425Z,11.33
2023-03-03T13:08:06.457Z,12.53
2023-03-03T13:10:41.260Z,9.70
2023-03-03T13:13:19.249Z,10.70
2023-03-03T13:16:06.870Z,9.87
2023-03-03T13:18:56.194Z,9.60
2023-03-03T13:21:27.523Z,10.37
2023-03-03T13:24:21.764Z,9.93
2023-03-03T13:26:58.916Z,8.07
2023-03-03T13:29:40.124Z,9.20
2023-03-03T13:32:15.595Z,9.30
2023-03-03T13:35:00.523Z,9.53
2023-03-03T13:37:45.628Z,9.37
2023-03-03T13:40:27.244Z,10.20
2023-03-03T13:43:05.503Z,9.70
2023-03-03T13:45:58.067Z,10.30
2023-03-03T13:48:49.756Z,11.43
2023-03-03T13:51:32.245Z,9.43
2023-03-03T13:54:26.956Z,10.50
2023-03-03T13:57:15.032Z,10.13
2023-03-03T14:00:00.350Z,9.93
2023-03-03T14:02:38.992Z,9.80
2023-03-03T14:05:34.040Z,10.97
2023-03-03T14:08:05.362Z,10.23
2023-03-03T14:10:45.023Z,10.03
2023-03-03T14:13:13.413Z,11.00
2023-03-03T14:16:13.476Z,12.93
2023-03-03T14:19:04.496Z,11.67
2023-03-03T14:21:31.227Z,9.80
2023-03-03T14:24:01.036Z,9.87
2023-03-03T14:26:27.938Z,9.20
2023-03-03T14:29:15.531Z,10.23
2023-03-03T14:31:43.605Z,8.10
2023-03-03T14:34:36.587Z,10.00
2023-03-03T14:37:45.802Z,10.20
2023-03-03T14:40:17.194Z,9.20
2023-03-03T14:42:59.686Z,11.50
2023-03-03T14:45:38.128Z,9.77
2023-03-03T14:48:13.890Z,11.93
2023-03-03T14:50:43.150Z,10.43
2023-03-03T14:53:18.746Z,12.73
2023-03-03T14:55:48.257Z,9.17
2023-03-03T14:58:36.566Z,10.40
2023-03-03T15:01:15.668Z,9.87
2023-03-03T15:04:07.516Z,8.83
2023-03-03T15:06:46.938Z,9.20
2023-03-03T15:09:30.004Z,11.13
2023-03-03T15:11:58.857Z,8.70
2023-03-03T15:14:47.558Z,8.97
2023-03-03T15:17:35.480Z,8.17
2023-03-03T15:20:16.014Z,8.57
2023-03-03T15:22:48.737Z,8.50
2023-03-03T15:25:34.678Z,9.37
2023-03-03T15:28:44.206Z,10.03
2023-03-03T15:31:32.390Z,8.60
2023-03-03T15:34:33.067Z,9.13
2023-03-03T15:37:02.802Z,9.97
2023-03-03T15:39:52.593Z,11.43
2023-03-03T15:42:35.942Z,10.10
2023-03-03T15:45:24.982Z,10.53
2023-03-03T15:48:11.042Z,10.20
2023-03-03T15:50:40.767Z,9.93
2023-03-03T15:53:27.685Z,10.57
2023-03-03T15:56:31.048Z,11.30
2023-03-03T15:59:01.948Z,7.97
2023-03-03T16:02:02.212Z,10.70
2023-03-03T16:04:33.166Z,8.37
2023-03-03T16:07:08.372Z,10.30
2023-03-03T16:10:14.130Z,9.53
2023-03-03T16:13:18.442Z,24.93
2023-03-03T16:16:12.514Z,20.37
2023-03-03T16:19:01.053Z,16.33
2023-03-03T16:22:04.178Z,10.87
2023-03-03T16:24:52.168Z,9.60
2023-03-03T16:27:41.093Z,8.40
2023-03-03T16:30:26.946Z,8.80
2023-03-03T16:32:58.544Z,19.03
2023-03-03T16:35:29.099Z,14.80
2023-03-03T16:38:02.243Z,9.43
2023-03-03T16:40:45.275Z,10.97
2023-03-03T16:43:14.884Z,8.70
2023-03-03T16:45:42.054Z,8.20
2023-03-03T16:48:35.459Z,7.40
2023-03-03T16:51:27.535Z,8.10
2023-03-03T16:54:07.326Z,8.63
2023-03-03T16:57:22.048Z,8.80
2023-03-03T17:00:06.607Z,7.87
2023-03-03T17:02:38.381Z,8.77
2023-03-03T17:05:20.690Z,7.70
2023-03-03T17:08:02.571Z,7.60
2023-03-03T17:11:10.718Z,8.53
2023-03-03T17:13:49.251Z,6.07
2023-03-03T17:16:18.951Z,9.20
2023-03-03T17:19:17.806Z,6.60
2023-03-03T17:22:04.546Z,6.30
2023-03-03T17:24:49.485Z,6.50
2023-03-03T17:27:26.198Z,8.10
2023-03-03T17:30:05.303Z,6.40
2023-03-03T17:32:44.715Z,7.40
2023-03-03T17:35:21.526Z,7.30
2023-03-03T17:38:03.569Z,8.43
2023-03-03T17:40:36.378Z,7.27
2023-03-03T17:43:16.541Z,6.77
2023-03-03T17:45:45.390Z,6.60
2023-03-03T17:48:40.572Z,6.40
2023-03-03T17:51:45.056Z,6.93
2023-03-03T17:54:19.252Z,7.23
2023-03-03T17:57:16.353Z,7.33
2023-03-03T17:59:51.810Z,6.70
2023-03-03T18:02:36.777Z,6.87
2023-03-03T18:05:25.046Z,5.77
2023-03-03T18:08:34.533Z,5.17
2023-03-03T18:11:01.233Z,7.57
2023-03-03T18:13:39.965Z,6.60
2023-03-03T18:16:29.273Z,6.40
2023-03-03T18:19:17.777Z,6.67
2023-03-03T18:21:50.256Z,6.23
2023-03-03T18:24:27.832Z,8.00
2023-03-03T18:26:56.412Z,5.83
2023-03-03T18:29:28.289Z,6.83
2023-03-03T18:31:57.955Z,6.77
2023-03-03T18:34:29.824Z,5.70
2023-03-03T18:37:19.625Z,6.20
2023-03-03T18:39:48.729Z,7.70
2023-03-03T18:42:23.541Z,5.70
2023-03-03T18:44:50.336Z,5.67
2023-03-03T18:47:17.653Z,6.20
2023-03-03T18:49:53.659Z,5.87
2023-03-03T18:52:23.023Z,6.90
2023-03-03T18:55:02.692Z,8.37
2023-03-03T18:57:29.552Z,7.03
2023-03-03T19:00:08.761Z,6.27
2023-03-03T19:02:39.109Z,7.63
2023-03-03T19:05:12.156Z,8.30
2023-03-03T19:07:41.882Z,8.00
2023-03-03T19:10:47.602Z,7.27
2023-03-03T19:13:32.612Z,8.10
2023-03-03T19:16:01.437Z,6.00
2023-03-03T19:18:29.740Z,5.40
2023-03-03T19:21:20.889Z,5.33
2023-03-03T19:24:01.609Z,6.47
2023-03-03T19:26:32.167Z,5.93
2023-03-03T19:29:13.967Z,5.80
2023-03-03T19:32:10.539Z,5.63
2023-03-03T19:34:55.720Z,6.10
2023-03-03T19:37:53.805Z,5.43
2023-03-03T19:40:55.709Z,8.67
2023-03-03T19:44:00.911Z,7.43
2023-03-03T19:46:47.800Z,9.43
2023-03-03T19:49:26.581Z,5.83
2023-03-03T19:52:21.324Z,5.07
2023-03-03T19:55:08.230Z,5.03
2023-03-03T19:57:49.025Z,5.40
2023-03-03T20:00:27.890Z,5.33
2023-03-03T20:03:37.152Z,5.00
2023-03-03T20:06:18.730Z,5.30
2023-03-03T20:09:03.672Z,6.73
2023-03-03T20:11:52.113Z,9.30
2023-03-03T20:14:40.350Z,10.83
2023-03-03T20:17:37.080Z,10.77
2023-03-03T20:20:22.530Z,10.10
2023-03-03T20:23:11.813Z,7.73
2023-03-03T20:25:42.119Z,10.23
2023-03-03T20:28:16.910Z,8.47
2023-03-03T20:31:07.100Z,9.53
2023-03-03T20:33:55.964Z,8.27
2023-03-03T20:36:35.544Z,6.40
2023-03-03T20:39:07.717Z,6.70
2023-03-03T20:41:51.426Z,6.03
2023-03-03T21:11:27.666Z,6.10
2023-03-03T21:33:09.158Z,6.00
2023-03-03T21:35:57.574Z,5.53
2023-03-03T21:38:34.672Z,5.37
2023-03-03T21:41:02.000Z,5.17
2023-03-03T21:43:38.805Z,5.70
2023-03-03T21:46:05.996Z,5.37
2023-03-03T21:48:32.743Z,5.33
2023-03-03T21:50:59.479Z,5.67
2023-03-03T21:53:26.773Z,6.70
2023-03-03T21:55:54.062Z,5.27
2023-03-03T21:58:20.657Z,6.93
2023-03-03T22:00:47.440Z,5.73
2023-03-03T22:03:15.403Z,4.27
2023-03-03T22:05:42.171Z,5.03
2023-03-03T22:08:08.789Z,4.80
2023-03-03T22:10:35.505Z,4.57
2023-03-03T22:13:02.192Z,4.30
2023-03-03T22:15:33.420Z,4.53
2023-03-03T22:18:00.903Z,4.37
2023-03-03T22:20:27.630Z,4.30
2023-03-03T22:22:54.453Z,4.37
2023-03-03T22:25:21.114Z,3.83
2023-03-03T22:27:47.848Z,4.60
2023-03-03T22:30:15.834Z,5.20
2023-03-03T22:32:42.594Z,4.67
2023-03-03T22:35:09.816Z,4.33
2023-03-03T22:37:36.395Z,6.10
2023-03-03T22:40:03.542Z,6.57
2023-03-03T22:42:30.211Z,6.03
2023-03-03T22:44:56.810Z,5.70
2023-03-03T22:47:23.577Z,4.80
2023-03-03T22:49:50.238Z,4.80
2023-03-03T22:52:16.853Z,6.40
2023-03-03T22:54:43.657Z,6.13
2023-03-03T22:57:10.365Z,6.47
2023-03-03T22:59:36.976Z,5.77
2023-03-03T23:02:04.076Z,5.70
2023-03-03T23:04:33.036Z,5.20
2023-03-03T23:07:00.983Z,5.37
2023-03-03T23:09:27.637Z,5.57
2023-03-03T23:11:54.209Z,5.17
2023-03-03T23:14:20.815Z,6.53
2023-03-03T23:16:47.598Z,6.77
2023-03-03T23:19:14.206Z,7.03
2023-03-03T23:21:41.269Z,8.83
2023-03-03T23:24:08.224Z,5.70
2023-03-03T23:26:34.788Z,6.00
2023-03-03T23:29:01.450Z,5.93
2023-03-03T23:31:28.080Z,5.13
2023-03-03T23:33:54.762Z,4.57
2023-03-03T23:36:21.366Z,4.40
2023-03-03T23:38:48.062Z,4.73
2023-03-03T23:41:14.669Z,5.90
2023-03-03T23:43:41.313Z,4.70
2023-03-03T23:46:07.956Z,5.63
2023-03-03T23:48:34.580Z,5.50
2023-03-03T23:51:02.756Z,4.80
2023-03-03T23:53:29.442Z,4.57
2023-03-03T23:55:56.069Z,5.13
2023-03-03T23:58:22.666Z,4.33
